Check out our new PWSWeather beta!
PWSweather.com
Personal Weather Stations
Station Observations
KNCGREEN1000
Bell Orchard Drive, Greensboro, NC 27455

Bell Orchard DriveGreensboro, NC 27455

Lat: 36.132, Lon: -79.8

Elevation: 876

Station Type: Acurite Atlas

Http://www.gilhutcheson.com

High Low Average
Temperature 63.0°F17.2°C 41.7°F5.4°C 51.5°F10.8°C
Dew Point 49.7°F9.8°C 33.9°F1.1°C 41.4°F5.2°C
Winds 11.0 mph 17.7 kmh Calm Calm 3.0 mph E4.8 kmh E
Wind Gusts -- -- --
Humidity 97% 41% 71%
Pressure 30.21 in1023.0 mb 30.03 in1016.9 mb -
Precipitation 0.00 in0.0 mm - -
Hour Temp Dew Point Humidity Winds Wind Gusts Pressure Precip Precip Rate Daily Precip Total
12:02 AM 52.2°F11.2°C 45.1°F7.3°C 77% 4.0 mph N6.4 kmh N -- 30.08 in1018.6 mb 0.00 in0.0 mm 0.00 in0.0 mm 0.00 in0.0 mm
12:03 AM 52.2°F11.2°C 45.1°F7.3°C 77% 5.0 mph NE8.0 kmh NE -- 30.08 in1018.6 mb 0.00 in0.0 mm 0.00 in0.0 mm 0.00 in0.0 mm
12:07 AM 52.3°F11.3°C 45.3°F7.4°C 77% 3.0 mph NNE4.8 kmh NNE -- 30.08 in1018.6 mb 0.00 in0.0 mm 0.00 in0.0 mm 0.00 in0.0 mm
12:12 AM 52.1°F11.2°C 45.1°F7.3°C 77% 3.0 mph NE4.8 kmh NE -- 30.07 in1018.3 mb 0.00 in0.0 mm 0.00 in0.0 mm 0.00 in0.0 mm
12:17 AM 51.9°F11.1°C 44.9°F7.2°C 77% 3.0 mph NNE4.8 kmh NNE -- 30.07 in1018.3 mb 0.00 in0.0 mm 0.00 in0.0 mm 0.00 in0.0 mm
12:22 AM 52.1°F11.2°C 44.7°F7.1°C 76% 3.0 mph NNE4.8 kmh NNE -- 30.08 in1018.6 mb 0.00 in0.0 mm 0.00 in0.0 mm 0.00 in0.0 mm
12:23 AM 52.1°F11.2°C 44.7°F7.1°C 76% 2.0 mph NE3.2 kmh NE -- 30.08 in1018.6 mb 0.00 in0.0 mm 0.00 in0.0 mm 0.00 in0.0 mm
12:27 AM 52.1°F11.2°C 44.7°F7.1°C 76% 4.0 mph N6.4 kmh N -- 30.08 in1018.6 mb 0.00 in0.0 mm 0.00 in0.0 mm 0.00 in0.0 mm
12:32 AM 52.0°F11.1°C 44.6°F7.0°C 76% 3.0 mph NE4.8 kmh NE -- 30.08 in1018.6 mb 0.00 in0.0 mm 0.00 in0.0 mm 0.00 in0.0 mm
12:37 AM 52.0°F11.1°C 44.6°F7.0°C 76% 4.0 mph NNE6.4 kmh NNE -- 30.07 in1018.3 mb 0.00 in0.0 mm 0.00 in0.0 mm 0.00 in0.0 mm
12:42 AM 52.0°F11.1°C 44.6°F7.0°C 76% 3.0 mph NNE4.8 kmh NNE -- 30.07 in1018.3 mb 0.00 in0.0 mm 0.00 in0.0 mm 0.00 in0.0 mm
12:47 AM 51.7°F10.9°C 44.6°F7.0°C 77% 2.0 mph NNE3.2 kmh NNE -- 30.07 in1018.3 mb 0.00 in0.0 mm 0.00 in0.0 mm 0.00 in0.0 mm
12:52 AM 51.4°F10.8°C 44.7°F7.1°C 78% 3.0 mph NE4.8 kmh NE -- 30.07 in1018.3 mb 0.00 in0.0 mm 0.00 in0.0 mm 0.00 in0.0 mm
12:57 AM 51.3°F10.7°C 44.6°F7.0°C 78% 5.0 mph NE8.0 kmh NE -- 30.07 in1018.3 mb 0.00 in0.0 mm 0.00 in0.0 mm 0.00 in0.0 mm
01:02 AM 51.3°F10.7°C 44.6°F7.0°C 78% 5.0 mph NE8.0 kmh NE -- 30.07 in1018.3 mb 0.00 in0.0 mm 0.00 in0.0 mm 0.00 in0.0 mm
01:07 AM 51.3°F10.7°C 44.9°F7.2°C 79% 5.0 mph 8.0 kmh -- 30.07 in1018.3 mb 0.00 in0.0 mm 0.00 in0.0 mm 0.00 in0.0 mm
01:12 AM 51.4°F10.8°C 45.1°F7.3°C 79% 5.0 mph NNE8.0 kmh NNE -- 30.07 in1018.3 mb 0.00 in0.0 mm 0.00 in0.0 mm 0.00 in0.0 mm
01:17 AM 51.4°F10.8°C 45.1°F7.3°C 79% 5.0 mph NNE8.0 kmh NNE -- 30.07 in1018.3 mb 0.00 in0.0 mm 0.00 in0.0 mm 0.00 in0.0 mm
01:22 AM 51.6°F10.9°C 45.3°F7.4°C 79% 5.0 mph NNE8.0 kmh NNE -- 30.07 in1018.3 mb 0.00 in0.0 mm 0.00 in0.0 mm 0.00 in0.0 mm
01:27 AM 51.5°F10.8°C 45.1°F7.3°C 79% 2.0 mph NE3.2 kmh NE -- 30.07 in1018.3 mb 0.00 in0.0 mm 0.00 in0.0 mm 0.00 in0.0 mm
01:32 AM 51.3°F10.7°C 44.9°F7.2°C 79% 3.0 mph NE4.8 kmh NE -- 30.07 in1018.3 mb 0.00 in0.0 mm 0.00 in0.0 mm 0.00 in0.0 mm
01:38 AM 51.0°F10.6°C 45.1°F7.3°C 80% 4.0 mph NE6.4 kmh NE -- 30.06 in1017.9 mb 0.00 in0.0 mm 0.00 in0.0 mm 0.00 in0.0 mm
01:42 AM 50.8°F10.4°C 44.7°F7.1°C 80% 3.0 mph N4.8 kmh N -- 30.06 in1017.9 mb 0.00 in0.0 mm 0.00 in0.0 mm 0.00 in0.0 mm
01:47 AM 50.5°F10.3°C 44.9°F7.2°C 81% 2.0 mph NE3.2 kmh NE -- 30.06 in1017.9 mb 0.00 in0.0 mm 0.00 in0.0 mm 0.00 in0.0 mm
01:52 AM 50.3°F10.2°C 44.7°F7.1°C 81% 1.0 mph ESE1.6 kmh ESE -- 30.06 in1017.9 mb 0.00 in0.0 mm 0.00 in0.0 mm 0.00 in0.0 mm
01:58 AM 50.1°F10.1°C 44.8°F7.1°C 82% Calm Calm -- 30.07 in1018.3 mb 0.00 in0.0 mm 0.00 in0.0 mm 0.00 in0.0 mm
02:02 AM 50.0°F10.0°C 45.0°F7.2°C 83% 2.0 mph E3.2 kmh E -- 30.07 in1018.3 mb 0.00 in0.0 mm 0.00 in0.0 mm 0.00 in0.0 mm
02:07 AM 50.0°F10.0°C 45.0°F7.2°C 83% 2.0 mph NE3.2 kmh NE -- 30.07 in1018.3 mb 0.00 in0.0 mm 0.00 in0.0 mm 0.00 in0.0 mm
02:12 AM 50.1°F10.1°C 45.2°F7.3°C 83% 2.0 mph SE3.2 kmh SE -- 30.06 in1017.9 mb 0.00 in0.0 mm 0.00 in0.0 mm 0.00 in0.0 mm
02:17 AM 49.9°F9.9°C 44.8°F7.1°C 83% 1.0 mph E1.6 kmh E -- 30.07 in1018.3 mb 0.00 in0.0 mm 0.00 in0.0 mm 0.00 in0.0 mm
02:22 AM 49.7°F9.8°C 44.6°F7.0°C 83% Calm Calm -- 30.06 in1017.9 mb 0.00 in0.0 mm 0.00 in0.0 mm 0.00 in0.0 mm
02:27 AM 49.3°F9.6°C 44.3°F6.8°C 83% 1.0 mph ENE1.6 kmh ENE -- 30.06 in1017.9 mb 0.00 in0.0 mm 0.00 in0.0 mm 0.00 in0.0 mm
02:32 AM 49.1°F9.5°C 44.1°F6.7°C 83% Calm Calm -- 30.06 in1017.9 mb 0.00 in0.0 mm 0.00 in0.0 mm 0.00 in0.0 mm
02:37 AM 48.7°F9.3°C 44.1°F6.7°C 84% Calm Calm -- 30.06 in1017.9 mb 0.00 in0.0 mm 0.00 in0.0 mm 0.00 in0.0 mm
02:42 AM 48.5°F9.2°C 43.9°F6.6°C 84% Calm Calm -- 30.06 in1017.9 mb 0.00 in0.0 mm 0.00 in0.0 mm 0.00 in0.0 mm
02:47 AM 48.1°F8.9°C 44.0°F6.7°C 86% 3.0 mph NNE4.8 kmh NNE -- 30.06 in1017.9 mb 0.00 in0.0 mm 0.00 in0.0 mm 0.00 in0.0 mm
02:52 AM 47.8°F8.8°C 44.1°F6.7°C 87% 1.0 mph E1.6 kmh E -- 30.07 in1018.3 mb 0.00 in0.0 mm 0.00 in0.0 mm 0.00 in0.0 mm
02:57 AM 47.6°F8.7°C 44.2°F6.8°C 88% 2.0 mph NNE3.2 kmh NNE -- 30.06 in1017.9 mb 0.00 in0.0 mm 0.00 in0.0 mm 0.00 in0.0 mm
03:02 AM 47.5°F8.6°C 44.1°F6.7°C 88% 1.0 mph E1.6 kmh E -- 30.06 in1017.9 mb 0.00 in0.0 mm 0.00 in0.0 mm 0.00 in0.0 mm
03:07 AM 47.4°F8.6°C 44.1°F6.7°C 88% 2.0 mph ENE3.2 kmh ENE -- 30.05 in1017.6 mb 0.00 in0.0 mm 0.00 in0.0 mm 0.00 in0.0 mm
03:12 AM 47.1°F8.4°C 43.7°F6.5°C 88% 2.0 mph NE3.2 kmh NE -- 30.05 in1017.6 mb 0.00 in0.0 mm 0.00 in0.0 mm 0.00 in0.0 mm
03:17 AM 46.8°F8.2°C 43.7°F6.5°C 89% 2.0 mph NE3.2 kmh NE -- 30.06 in1017.9 mb 0.00 in0.0 mm 0.00 in0.0 mm 0.00 in0.0 mm
03:22 AM 46.5°F8.1°C 43.5°F6.4°C 89% 2.0 mph ENE3.2 kmh ENE -- 30.06 in1017.9 mb 0.00 in0.0 mm 0.00 in0.0 mm 0.00 in0.0 mm
03:27 AM 46.1°F7.8°C 43.2°F6.2°C 90% 2.0 mph NW3.2 kmh NW -- 30.05 in1017.6 mb 0.00 in0.0 mm 0.00 in0.0 mm 0.00 in0.0 mm
03:32 AM 45.8°F7.7°C 43.4°F6.3°C 91% 2.0 mph NE3.2 kmh NE -- 30.05 in1017.6 mb 0.00 in0.0 mm 0.00 in0.0 mm 0.00 in0.0 mm
03:37 AM 45.5°F7.5°C 43.3°F6.3°C 92% 2.0 mph NE3.2 kmh NE -- 30.05 in1017.6 mb 0.00 in0.0 mm 0.00 in0.0 mm 0.00 in0.0 mm
03:42 AM 45.3°F7.4°C 43.1°F6.2°C 92% 2.0 mph NE3.2 kmh NE -- 30.05 in1017.6 mb 0.00 in0.0 mm 0.00 in0.0 mm 0.00 in0.0 mm
03:47 AM 45.3°F7.4°C 43.4°F6.3°C 93% 2.0 mph NE3.2 kmh NE -- 30.05 in1017.6 mb 0.00 in0.0 mm 0.00 in0.0 mm 0.00 in0.0 mm
03:53 AM 45.0°F7.2°C 43.0°F6.1°C 93% 2.0 mph NNW3.2 kmh NNW -- 30.05 in1017.6 mb 0.00 in0.0 mm 0.00 in0.0 mm 0.00 in0.0 mm
03:57 AM 44.8°F7.1°C 42.9°F6.1°C 93% 3.0 mph NE4.8 kmh NE -- 30.05 in1017.6 mb 0.00 in0.0 mm 0.00 in0.0 mm 0.00 in0.0 mm
04:02 AM 44.8°F7.1°C 42.9°F6.1°C 93% 2.0 mph NE3.2 kmh NE -- 30.04 in1017.3 mb 0.00 in0.0 mm 0.00 in0.0 mm 0.00 in0.0 mm
04:07 AM 45.0°F7.2°C 43.0°F6.1°C 93% 2.0 mph NE3.2 kmh NE -- 30.04 in1017.3 mb 0.00 in0.0 mm 0.00 in0.0 mm 0.00 in0.0 mm
04:12 AM 44.8°F7.1°C 42.9°F6.1°C 93% 2.0 mph NE3.2 kmh NE -- 30.04 in1017.3 mb 0.00 in0.0 mm 0.00 in0.0 mm 0.00 in0.0 mm
04:13 AM 44.8°F7.1°C 42.9°F6.1°C 93% 2.0 mph NE3.2 kmh NE -- 30.04 in1017.3 mb 0.00 in0.0 mm 0.00 in0.0 mm 0.00 in0.0 mm
04:17 AM 44.8°F7.1°C 42.9°F6.1°C 93% 2.0 mph NNE3.2 kmh NNE -- 30.04 in1017.3 mb 0.00 in0.0 mm 0.00 in0.0 mm 0.00 in0.0 mm
04:22 AM 44.7°F7.1°C 43.1°F6.2°C 94% 1.0 mph ENE1.6 kmh ENE -- 30.04 in1017.3 mb 0.00 in0.0 mm 0.00 in0.0 mm 0.00 in0.0 mm
04:27 AM 44.6°F7.0°C 42.7°F5.9°C 93% 3.0 mph NE4.8 kmh NE -- 30.04 in1017.3 mb 0.00 in0.0 mm 0.00 in0.0 mm 0.00 in0.0 mm
04:32 AM 44.5°F6.9°C 42.8°F6.0°C 94% 2.0 mph NE3.2 kmh NE -- 30.04 in1017.3 mb 0.00 in0.0 mm 0.00 in0.0 mm 0.00 in0.0 mm
04:37 AM 44.4°F6.9°C 42.8°F6.0°C 94% 2.0 mph NE3.2 kmh NE -- 30.04 in1017.3 mb 0.00 in0.0 mm 0.00 in0.0 mm 0.00 in0.0 mm
04:42 AM 44.2°F6.8°C 42.3°F5.7°C 93% 1.0 mph E1.6 kmh E -- 30.04 in1017.3 mb 0.00 in0.0 mm 0.00 in0.0 mm 0.00 in0.0 mm
04:47 AM 44.0°F6.7°C 42.4°F5.8°C 94% 2.0 mph N3.2 kmh N -- 30.04 in1017.3 mb 0.00 in0.0 mm 0.00 in0.0 mm 0.00 in0.0 mm
04:52 AM 43.8°F6.6°C 42.2°F5.7°C 94% 3.0 mph NNE4.8 kmh NNE -- 30.04 in1017.3 mb 0.00 in0.0 mm 0.00 in0.0 mm 0.00 in0.0 mm
04:57 AM 43.7°F6.5°C 42.1°F5.6°C 94% 2.0 mph NE3.2 kmh NE -- 30.04 in1017.3 mb 0.00 in0.0 mm 0.00 in0.0 mm 0.00 in0.0 mm
05:02 AM 43.5°F6.4°C 41.9°F5.5°C 94% 2.0 mph E3.2 kmh E -- 30.04 in1017.3 mb 0.00 in0.0 mm 0.00 in0.0 mm 0.00 in0.0 mm
05:07 AM 43.6°F6.4°C 42.2°F5.7°C 95% 2.0 mph ENE3.2 kmh ENE -- 30.04 in1017.3 mb 0.00 in0.0 mm 0.00 in0.0 mm 0.00 in0.0 mm
05:12 AM 44.0°F6.7°C 42.7°F5.9°C 95% 2.0 mph NE3.2 kmh NE -- 30.03 in1016.9 mb 0.00 in0.0 mm 0.00 in0.0 mm 0.00 in0.0 mm
05:17 AM 43.9°F6.6°C 42.5°F5.8°C 95% 2.0 mph NE3.2 kmh NE -- 30.04 in1017.3 mb 0.00 in0.0 mm 0.00 in0.0 mm 0.00 in0.0 mm
05:22 AM 43.7°F6.5°C 42.3°F5.7°C 95% 1.0 mph E1.6 kmh E -- 30.03 in1016.9 mb 0.00 in0.0 mm 0.00 in0.0 mm 0.00 in0.0 mm
05:27 AM 43.6°F6.4°C 42.2°F5.7°C 95% 1.0 mph E1.6 kmh E -- 30.04 in1017.3 mb 0.00 in0.0 mm 0.00 in0.0 mm 0.00 in0.0 mm
05:32 AM 43.3°F6.3°C 42.0°F5.6°C 95% 2.0 mph E3.2 kmh E -- 30.03 in1016.9 mb 0.00 in0.0 mm 0.00 in0.0 mm 0.00 in0.0 mm
05:37 AM 43.2°F6.2°C 41.8°F5.4°C 95% 2.0 mph NNE3.2 kmh NNE -- 30.03 in1016.9 mb 0.00 in0.0 mm 0.00 in0.0 mm 0.00 in0.0 mm
05:42 AM 43.4°F6.3°C 42.0°F5.6°C 95% 2.0 mph ENE3.2 kmh ENE -- 30.04 in1017.3 mb 0.00 in0.0 mm 0.00 in0.0 mm 0.00 in0.0 mm
05:48 AM 43.4°F6.3°C 42.0°F5.6°C 95% 2.0 mph NNE3.2 kmh NNE -- 30.04 in1017.3 mb 0.00 in0.0 mm 0.00 in0.0 mm 0.00 in0.0 mm
05:52 AM 43.1°F6.2°C 41.8°F5.4°C 95% 2.0 mph E3.2 kmh E -- 30.04 in1017.3 mb 0.00 in0.0 mm 0.00 in0.0 mm 0.00 in0.0 mm
05:57 AM 42.9°F6.1°C 41.6°F5.3°C 95% 2.0 mph N3.2 kmh N -- 30.04 in1017.3 mb 0.00 in0.0 mm 0.00 in0.0 mm 0.00 in0.0 mm
06:02 AM 42.5°F5.8°C 41.1°F5.1°C 95% 1.0 mph ENE1.6 kmh ENE -- 30.04 in1017.3 mb 0.00 in0.0 mm 0.00 in0.0 mm 0.00 in0.0 mm
06:07 AM 42.3°F5.7°C 40.9°F4.9°C 95% Calm Calm -- 30.04 in1017.3 mb 0.00 in0.0 mm 0.00 in0.0 mm 0.00 in0.0 mm
06:12 AM 42.2°F5.7°C 40.9°F4.9°C 95% 2.0 mph E3.2 kmh E -- 30.04 in1017.3 mb 0.00 in0.0 mm 0.00 in0.0 mm 0.00 in0.0 mm
06:17 AM 42.0°F5.6°C 40.7°F4.8°C 95% 1.0 mph NE1.6 kmh NE -- 30.05 in1017.6 mb 0.00 in0.0 mm 0.00 in0.0 mm 0.00 in0.0 mm
06:22 AM 41.9°F5.5°C 40.6°F4.8°C 95% 1.0 mph E1.6 kmh E -- 30.05 in1017.6 mb 0.00 in0.0 mm 0.00 in0.0 mm 0.00 in0.0 mm
06:27 AM 41.8°F5.4°C 40.4°F4.7°C 95% 2.0 mph N3.2 kmh N -- 30.05 in1017.6 mb 0.00 in0.0 mm 0.00 in0.0 mm 0.00 in0.0 mm
06:32 AM 41.7°F5.4°C 40.4°F4.7°C 95% Calm Calm -- 30.05 in1017.6 mb 0.00 in0.0 mm 0.00 in0.0 mm 0.00 in0.0 mm
06:37 AM 41.8°F5.4°C 40.4°F4.7°C 95% Calm Calm -- 30.05 in1017.6 mb 0.00 in0.0 mm 0.00 in0.0 mm 0.00 in0.0 mm
06:42 AM 41.9°F5.5°C 40.6°F4.8°C 95% Calm Calm -- 30.06 in1017.9 mb 0.00 in0.0 mm 0.00 in0.0 mm 0.00 in0.0 mm
06:47 AM 42.0°F5.6°C 40.7°F4.8°C 95% Calm Calm -- 30.06 in1017.9 mb 0.00 in0.0 mm 0.00 in0.0 mm 0.00 in0.0 mm
06:52 AM 42.1°F5.6°C 41.0°F5.0°C 96% Calm Calm -- 30.06 in1017.9 mb 0.00 in0.0 mm 0.00 in0.0 mm 0.00 in0.0 mm
06:57 AM 42.4°F5.8°C 41.4°F5.2°C 96% 2.0 mph E3.2 kmh E -- 30.06 in1017.9 mb 0.00 in0.0 mm 0.00 in0.0 mm 0.00 in0.0 mm
07:02 AM 42.3°F5.7°C 41.2°F5.1°C 96% 2.0 mph NE3.2 kmh NE -- 30.07 in1018.3 mb 0.00 in0.0 mm 0.00 in0.0 mm 0.00 in0.0 mm
07:07 AM 42.3°F5.7°C 41.2°F5.1°C 96% 3.0 mph NNE4.8 kmh NNE -- 30.07 in1018.3 mb 0.00 in0.0 mm 0.00 in0.0 mm 0.00 in0.0 mm
07:12 AM 42.0°F5.6°C 41.0°F5.0°C 96% 2.0 mph E3.2 kmh E -- 30.07 in1018.3 mb 0.00 in0.0 mm 0.00 in0.0 mm 0.00 in0.0 mm
07:17 AM 41.8°F5.4°C 40.6°F4.8°C 96% 2.0 mph E3.2 kmh E -- 30.07 in1018.3 mb 0.00 in0.0 mm 0.00 in0.0 mm 0.00 in0.0 mm
07:23 AM 41.7°F5.4°C 40.6°F4.8°C 96% 1.0 mph SE1.6 kmh SE -- 30.07 in1018.3 mb 0.00 in0.0 mm 0.00 in0.0 mm 0.00 in0.0 mm
07:27 AM 41.8°F5.4°C 40.6°F4.8°C 96% Calm Calm -- 30.07 in1018.3 mb 0.00 in0.0 mm 0.00 in0.0 mm 0.00 in0.0 mm
07:32 AM 42.0°F5.6°C 41.0°F5.0°C 96% Calm Calm -- 30.07 in1018.3 mb 0.00 in0.0 mm 0.00 in0.0 mm 0.00 in0.0 mm
07:37 AM 42.1°F5.6°C 41.0°F5.0°C 96% Calm Calm -- 30.07 in1018.3 mb 0.00 in0.0 mm 0.00 in0.0 mm 0.00 in0.0 mm
07:42 AM 42.3°F5.7°C 41.2°F5.1°C 96% Calm Calm -- 30.07 in1018.3 mb 0.00 in0.0 mm 0.00 in0.0 mm 0.00 in0.0 mm
07:43 AM 42.3°F5.7°C 41.2°F5.1°C 96% Calm Calm -- 30.07 in1018.3 mb 0.00 in0.0 mm 0.00 in0.0 mm 0.00 in0.0 mm
07:47 AM 42.4°F5.8°C 41.4°F5.2°C 96% 2.0 mph NE3.2 kmh NE -- 30.08 in1018.6 mb 0.00 in0.0 mm 0.00 in0.0 mm 0.00 in0.0 mm
07:52 AM 42.5°F5.8°C 41.4°F5.2°C 96% 1.0 mph E1.6 kmh E -- 30.08 in1018.6 mb 0.00 in0.0 mm 0.00 in0.0 mm 0.00 in0.0 mm
07:57 AM 42.3°F5.7°C 41.2°F5.1°C 96% 1.0 mph ESE1.6 kmh ESE -- 30.08 in1018.6 mb 0.00 in0.0 mm 0.00 in0.0 mm 0.00 in0.0 mm
08:02 AM 42.3°F5.7°C 41.2°F5.1°C 96% 2.0 mph NNE3.2 kmh NNE -- 30.08 in1018.6 mb 0.00 in0.0 mm 0.00 in0.0 mm 0.00 in0.0 mm
08:07 AM 42.0°F5.6°C 41.0°F5.0°C 96% 2.0 mph ENE3.2 kmh ENE -- 30.09 in1019.0 mb 0.00 in0.0 mm 0.00 in0.0 mm 0.00 in0.0 mm
08:12 AM 42.1°F5.6°C 41.0°F5.0°C 96% 3.0 mph NNE4.8 kmh NNE -- 30.08 in1018.6 mb 0.00 in0.0 mm 0.00 in0.0 mm 0.00 in0.0 mm
08:17 AM 42.5°F5.8°C 41.4°F5.2°C 96% 2.0 mph NE3.2 kmh NE -- 30.09 in1019.0 mb 0.00 in0.0 mm 0.00 in0.0 mm 0.00 in0.0 mm
08:22 AM 42.7°F5.9°C 41.5°F5.3°C 96% 2.0 mph NE3.2 kmh NE -- 30.09 in1019.0 mb 0.00 in0.0 mm 0.00 in0.0 mm 0.00 in0.0 mm
08:27 AM 42.8°F6.0°C 41.7°F5.4°C 96% 2.0 mph NE3.2 kmh NE -- 30.10 in1019.3 mb 0.00 in0.0 mm 0.00 in0.0 mm 0.00 in0.0 mm
08:32 AM 43.5°F6.4°C 42.7°F5.9°C 97% 2.0 mph NE3.2 kmh NE -- 30.10 in1019.3 mb 0.00 in0.0 mm 0.00 in0.0 mm 0.00 in0.0 mm
08:37 AM 44.4°F6.9°C 43.6°F6.4°C 97% 3.0 mph N4.8 kmh N -- 30.10 in1019.3 mb 0.00 in0.0 mm 0.00 in0.0 mm 0.00 in0.0 mm
08:42 AM 44.5°F6.9°C 43.6°F6.4°C 97% 3.0 mph NE4.8 kmh NE -- 30.10 in1019.3 mb 0.00 in0.0 mm 0.00 in0.0 mm 0.00 in0.0 mm
08:47 AM 44.8°F7.1°C 44.0°F6.7°C 97% 3.0 mph NE4.8 kmh NE -- 30.11 in1019.6 mb 0.00 in0.0 mm 0.00 in0.0 mm 0.00 in0.0 mm
08:52 AM 45.8°F7.7°C 45.0°F7.2°C 97% 3.0 mph NNE4.8 kmh NNE -- 30.11 in1019.6 mb 0.00 in0.0 mm 0.00 in0.0 mm 0.00 in0.0 mm
08:57 AM 46.2°F7.9°C 45.1°F7.3°C 96% 3.0 mph NNE4.8 kmh NNE -- 30.11 in1019.6 mb 0.00 in0.0 mm 0.00 in0.0 mm 0.00 in0.0 mm
09:02 AM 47.1°F8.4°C 45.2°F7.3°C 93% 5.0 mph NNE8.0 kmh NNE -- 30.11 in1019.6 mb 0.00 in0.0 mm 0.00 in0.0 mm 0.00 in0.0 mm
09:07 AM 48.3°F9.1°C 45.3°F7.4°C 89% 3.0 mph NNE4.8 kmh NNE -- 30.11 in1019.6 mb 0.00 in0.0 mm 0.00 in0.0 mm 0.00 in0.0 mm
09:12 AM 48.7°F9.3°C 45.3°F7.4°C 88% 3.0 mph NE4.8 kmh NE -- 30.12 in1020.0 mb 0.00 in0.0 mm 0.00 in0.0 mm 0.00 in0.0 mm
09:17 AM 49.2°F9.6°C 45.5°F7.5°C 87% 3.0 mph ENE4.8 kmh ENE -- 30.12 in1020.0 mb 0.00 in0.0 mm 0.00 in0.0 mm 0.00 in0.0 mm
09:22 AM 49.5°F9.7°C 45.4°F7.4°C 86% 3.0 mph NNE4.8 kmh NNE -- 30.12 in1020.0 mb 0.00 in0.0 mm 0.00 in0.0 mm 0.00 in0.0 mm
09:27 AM 49.7°F9.8°C 45.6°F7.6°C 86% 3.0 mph NNE4.8 kmh NNE -- 30.12 in1020.0 mb 0.00 in0.0 mm 0.00 in0.0 mm 0.00 in0.0 mm
09:32 AM 49.8°F9.9°C 45.8°F7.7°C 86% 3.0 mph NNE4.8 kmh NNE -- 30.12 in1020.0 mb 0.00 in0.0 mm 0.00 in0.0 mm 0.00 in0.0 mm
09:37 AM 50.0°F10.0°C 45.9°F7.7°C 86% 3.0 mph NE4.8 kmh NE -- 30.12 in1020.0 mb 0.00 in0.0 mm 0.00 in0.0 mm 0.00 in0.0 mm
09:46 AM 51.8°F11.0°C 46.4°F8.0°C 82% 3.0 mph NE4.8 kmh NE -- 30.12 in1020.0 mb 0.00 in0.0 mm 0.00 in0.0 mm 0.00 in0.0 mm
09:47 AM 52.0°F11.1°C 46.6°F8.1°C 82% 3.0 mph NNE4.8 kmh NNE -- 30.12 in1020.0 mb 0.00 in0.0 mm 0.00 in0.0 mm 0.00 in0.0 mm
09:52 AM 52.8°F11.6°C 47.2°F8.4°C 81% 3.0 mph E4.8 kmh E -- 30.13 in1020.3 mb 0.00 in0.0 mm 0.00 in0.0 mm 0.00 in0.0 mm
09:57 AM 52.9°F11.6°C 46.8°F8.2°C 80% 4.0 mph ENE6.4 kmh ENE -- 30.13 in1020.3 mb 0.00 in0.0 mm 0.00 in0.0 mm 0.00 in0.0 mm
10:02 AM 53.4°F11.9°C 47.0°F8.3°C 79% 7.0 mph ENE11.3 kmh ENE -- 30.13 in1020.3 mb 0.00 in0.0 mm 0.00 in0.0 mm 0.00 in0.0 mm
10:07 AM 53.9°F12.2°C 47.5°F8.6°C 79% 4.0 mph ENE6.4 kmh ENE -- 30.13 in1020.3 mb 0.00 in0.0 mm 0.00 in0.0 mm 0.00 in0.0 mm
10:12 AM 54.3°F12.4°C 47.5°F8.6°C 78% 4.0 mph N6.4 kmh N -- 30.13 in1020.3 mb 0.00 in0.0 mm 0.00 in0.0 mm 0.00 in0.0 mm
10:17 AM 54.4°F12.4°C 47.5°F8.6°C 78% 3.0 mph NE4.8 kmh NE -- 30.13 in1020.3 mb 0.00 in0.0 mm 0.00 in0.0 mm 0.00 in0.0 mm
10:22 AM 54.9°F12.7°C 47.7°F8.7°C 77% 1.0 mph ESE1.6 kmh ESE -- 30.13 in1020.3 mb 0.00 in0.0 mm 0.00 in0.0 mm 0.00 in0.0 mm
10:27 AM 55.4°F13.0°C 47.5°F8.6°C 75% 5.0 mph NE8.0 kmh NE -- 30.13 in1020.3 mb 0.00 in0.0 mm 0.00 in0.0 mm 0.00 in0.0 mm
10:32 AM 55.7°F13.2°C 48.2°F9.0°C 76% 2.0 mph NNE3.2 kmh NNE -- 30.12 in1020.0 mb 0.00 in0.0 mm 0.00 in0.0 mm 0.00 in0.0 mm
10:37 AM 55.9°F13.3°C 48.4°F9.1°C 76% 1.0 mph SE1.6 kmh SE -- 30.13 in1020.3 mb 0.00 in0.0 mm 0.00 in0.0 mm 0.00 in0.0 mm
10:42 AM 56.3°F13.5°C 48.0°F8.9°C 74% 4.0 mph NE6.4 kmh NE -- 30.12 in1020.0 mb 0.00 in0.0 mm 0.00 in0.0 mm 0.00 in0.0 mm
10:47 AM 56.3°F13.5°C 48.0°F8.9°C 74% 5.0 mph NNE8.0 kmh NNE -- 30.12 in1020.0 mb 0.00 in0.0 mm 0.00 in0.0 mm 0.00 in0.0 mm
10:52 AM 56.4°F13.6°C 48.6°F9.2°C 75% 2.0 mph SSE3.2 kmh SSE -- 30.12 in1020.0 mb 0.00 in0.0 mm 0.00 in0.0 mm 0.00 in0.0 mm
10:57 AM 57.0°F13.9°C 48.7°F9.3°C 74% 4.0 mph NE6.4 kmh NE -- 30.12 in1020.0 mb 0.00 in0.0 mm 0.00 in0.0 mm 0.00 in0.0 mm
11:02 AM 57.1°F13.9°C 48.4°F9.1°C 73% 3.0 mph ENE4.8 kmh ENE -- 30.12 in1020.0 mb 0.00 in0.0 mm 0.00 in0.0 mm 0.00 in0.0 mm
11:08 AM 57.3°F14.1°C 48.7°F9.3°C 73% 4.0 mph N6.4 kmh N -- 30.12 in1020.0 mb 0.00 in0.0 mm 0.00 in0.0 mm 0.00 in0.0 mm
11:12 AM 57.8°F14.3°C 49.1°F9.5°C 73% 4.0 mph N6.4 kmh N -- 30.12 in1020.0 mb 0.00 in0.0 mm 0.00 in0.0 mm 0.00 in0.0 mm
11:17 AM 57.8°F14.3°C 49.1°F9.5°C 73% 6.0 mph NNE9.7 kmh NNE -- 30.12 in1020.0 mb 0.00 in0.0 mm 0.00 in0.0 mm 0.00 in0.0 mm
11:22 AM 57.8°F14.3°C 49.1°F9.5°C 73% 5.0 mph E8.0 kmh E -- 30.12 in1020.0 mb 0.00 in0.0 mm 0.00 in0.0 mm 0.00 in0.0 mm
11:27 AM 58.2°F14.6°C 49.2°F9.6°C 72% 6.0 mph E9.7 kmh E -- 30.12 in1020.0 mb 0.00 in0.0 mm 0.00 in0.0 mm 0.00 in0.0 mm
11:32 AM 58.2°F14.6°C 49.2°F9.6°C 72% 6.0 mph NE9.7 kmh NE -- 30.12 in1020.0 mb 0.00 in0.0 mm 0.00 in0.0 mm 0.00 in0.0 mm
11:37 AM 58.6°F14.8°C 49.6°F9.8°C 72% 8.0 mph NE12.9 kmh NE -- 30.12 in1020.0 mb 0.00 in0.0 mm 0.00 in0.0 mm 0.00 in0.0 mm
11:42 AM 58.8°F14.9°C 49.7°F9.8°C 72% 6.0 mph ESE9.7 kmh ESE -- 30.12 in1020.0 mb 0.00 in0.0 mm 0.00 in0.0 mm 0.00 in0.0 mm
11:47 AM 58.8°F14.9°C 49.4°F9.7°C 71% 7.0 mph NE11.3 kmh NE -- 30.11 in1019.6 mb 0.00 in0.0 mm 0.00 in0.0 mm 0.00 in0.0 mm
11:52 AM 59.0°F15.0°C 49.1°F9.5°C 70% 8.0 mph NE12.9 kmh NE -- 30.11 in1019.6 mb 0.00 in0.0 mm 0.00 in0.0 mm 0.00 in0.0 mm
11:57 AM 58.9°F14.9°C 49.4°F9.7°C 71% 8.0 mph NNE12.9 kmh NNE -- 30.11 in1019.6 mb 0.00 in0.0 mm 0.00 in0.0 mm 0.00 in0.0 mm
12:02 PM 59.2°F15.1°C 49.3°F9.6°C 70% 4.0 mph NE6.4 kmh NE -- 30.11 in1019.6 mb 0.00 in0.0 mm 0.00 in0.0 mm 0.00 in0.0 mm
12:07 PM 59.5°F15.3°C 49.3°F9.6°C 69% 5.0 mph NNE8.0 kmh NNE -- 30.11 in1019.6 mb 0.00 in0.0 mm 0.00 in0.0 mm 0.00 in0.0 mm
12:12 PM 59.4°F15.2°C 49.1°F9.5°C 69% 9.0 mph N14.5 kmh N -- 30.11 in1019.6 mb 0.00 in0.0 mm 0.00 in0.0 mm 0.00 in0.0 mm
12:17 PM 59.6°F15.3°C 48.9°F9.4°C 68% 5.0 mph E8.0 kmh E -- 30.11 in1019.6 mb 0.00 in0.0 mm 0.00 in0.0 mm 0.00 in0.0 mm
12:22 PM 59.6°F15.3°C 48.9°F9.4°C 68% 5.0 mph NE8.0 kmh NE -- 30.11 in1019.6 mb 0.00 in0.0 mm 0.00 in0.0 mm 0.00 in0.0 mm
12:27 PM 60.5°F15.8°C 49.3°F9.6°C 67% 8.0 mph N12.9 kmh N -- 30.11 in1019.6 mb 0.00 in0.0 mm 0.00 in0.0 mm 0.00 in0.0 mm
12:32 PM 60.5°F15.8°C 49.3°F9.6°C 67% 5.0 mph NE8.0 kmh NE -- 30.11 in1019.6 mb 0.00 in0.0 mm 0.00 in0.0 mm 0.00 in0.0 mm
12:37 PM 60.3°F15.7°C 49.2°F9.6°C 67% 5.0 mph NNE8.0 kmh NNE -- 30.11 in1019.6 mb 0.00 in0.0 mm 0.00 in0.0 mm 0.00 in0.0 mm
12:42 PM 60.6°F15.9°C 49.5°F9.7°C 67% 4.0 mph NE6.4 kmh NE -- 30.10 in1019.3 mb 0.00 in0.0 mm 0.00 in0.0 mm 0.00 in0.0 mm
12:47 PM 60.1°F15.6°C 49.0°F9.4°C 67% 6.0 mph NNE9.7 kmh NNE -- 30.10 in1019.3 mb 0.00 in0.0 mm 0.00 in0.0 mm 0.00 in0.0 mm
12:52 PM 60.8°F16.0°C 48.9°F9.4°C 65% 5.0 mph NNE8.0 kmh NNE -- 30.10 in1019.3 mb 0.00 in0.0 mm 0.00 in0.0 mm 0.00 in0.0 mm
12:57 PM 60.7°F15.9°C 48.7°F9.3°C 65% 4.0 mph E6.4 kmh E -- 30.10 in1019.3 mb 0.00 in0.0 mm 0.00 in0.0 mm 0.00 in0.0 mm
01:03 PM 60.7°F15.9°C 48.7°F9.3°C 65% 1.0 mph WSW1.6 kmh WSW -- 30.10 in1019.3 mb 0.00 in0.0 mm 0.00 in0.0 mm 0.00 in0.0 mm
01:07 PM 61.3°F16.3°C 48.5°F9.2°C 63% 3.0 mph NNE4.8 kmh NNE -- 30.10 in1019.3 mb 0.00 in0.0 mm 0.00 in0.0 mm 0.00 in0.0 mm
01:12 PM 61.0°F16.1°C 47.3°F8.5°C 61% 4.0 mph 6.4 kmh -- 30.10 in1019.3 mb 0.00 in0.0 mm 0.00 in0.0 mm 0.00 in0.0 mm
01:17 PM 61.0°F16.1°C 46.9°F8.3°C 60% 9.0 mph N14.5 kmh N -- 30.10 in1019.3 mb 0.00 in0.0 mm 0.00 in0.0 mm 0.00 in0.0 mm
01:22 PM 61.3°F16.3°C 46.8°F8.2°C 59% 6.0 mph N9.7 kmh N -- 30.10 in1019.3 mb 0.00 in0.0 mm 0.00 in0.0 mm 0.00 in0.0 mm
01:27 PM 61.7°F16.5°C 47.1°F8.4°C 59% 6.0 mph NE9.7 kmh NE -- 30.10 in1019.3 mb 0.00 in0.0 mm 0.00 in0.0 mm 0.00 in0.0 mm
01:32 PM 62.1°F16.7°C 46.5°F8.1°C 57% 11.0 mph NNE17.7 kmh NNE -- 30.10 in1019.3 mb 0.00 in0.0 mm 0.00 in0.0 mm 0.00 in0.0 mm
01:37 PM 61.8°F16.6°C 45.4°F7.4°C 55% 6.0 mph NNE9.7 kmh NNE -- 30.10 in1019.3 mb 0.00 in0.0 mm 0.00 in0.0 mm 0.00 in0.0 mm
01:42 PM 62.3°F16.8°C 45.3°F7.4°C 54% 4.0 mph NE6.4 kmh NE -- 30.10 in1019.3 mb 0.00 in0.0 mm 0.00 in0.0 mm 0.00 in0.0 mm
01:47 PM 62.1°F16.7°C 46.5°F8.1°C 57% 4.0 mph N6.4 kmh N -- 30.10 in1019.3 mb 0.00 in0.0 mm 0.00 in0.0 mm 0.00 in0.0 mm
01:52 PM 62.3°F16.8°C 45.8°F7.7°C 55% 3.0 mph ENE4.8 kmh ENE -- 30.09 in1019.0 mb 0.00 in0.0 mm 0.00 in0.0 mm 0.00 in0.0 mm
01:57 PM 62.6°F17.0°C 46.1°F7.8°C 55% 8.0 mph N12.9 kmh N -- 30.10 in1019.3 mb 0.00 in0.0 mm 0.00 in0.0 mm 0.00 in0.0 mm
02:02 PM 62.6°F17.0°C 43.6°F6.4°C 50% 7.0 mph N11.3 kmh N -- 30.10 in1019.3 mb 0.00 in0.0 mm 0.00 in0.0 mm 0.00 in0.0 mm
02:07 PM 62.7°F17.1°C 41.0°F5.0°C 45% 6.0 mph NE9.7 kmh NE -- 30.09 in1019.0 mb 0.00 in0.0 mm 0.00 in0.0 mm 0.00 in0.0 mm
02:12 PM 62.5°F16.9°C 40.7°F4.8°C 45% 3.0 mph NE4.8 kmh NE -- 30.09 in1019.0 mb 0.00 in0.0 mm 0.00 in0.0 mm 0.00 in0.0 mm
02:17 PM 62.9°F17.2°C 40.6°F4.8°C 44% 5.0 mph NE8.0 kmh NE -- 30.09 in1019.0 mb 0.00 in0.0 mm 0.00 in0.0 mm 0.00 in0.0 mm
02:22 PM 62.8°F17.1°C 41.0°F5.0°C 45% 6.0 mph NNE9.7 kmh NNE -- 30.09 in1019.0 mb 0.00 in0.0 mm 0.00 in0.0 mm 0.00 in0.0 mm
02:27 PM 62.9°F17.2°C 41.2°F5.1°C 45% 7.0 mph NE11.3 kmh NE -- 30.09 in1019.0 mb 0.00 in0.0 mm 0.00 in0.0 mm 0.00 in0.0 mm
02:32 PM 63.0°F17.2°C 40.6°F4.8°C 44% 4.0 mph SE6.4 kmh SE -- 30.09 in1019.0 mb 0.00 in0.0 mm 0.00 in0.0 mm 0.00 in0.0 mm
02:37 PM 62.8°F17.1°C 41.0°F5.0°C 45% 7.0 mph NNE11.3 kmh NNE -- 30.10 in1019.3 mb 0.00 in0.0 mm 0.00 in0.0 mm 0.00 in0.0 mm
02:42 PM 62.7°F17.1°C 42.1°F5.6°C 47% 4.0 mph NE6.4 kmh NE -- 30.09 in1019.0 mb 0.00 in0.0 mm 0.00 in0.0 mm 0.00 in0.0 mm
02:47 PM 62.9°F17.2°C 41.7°F5.4°C 46% 6.0 mph NE9.7 kmh NE -- 30.09 in1019.0 mb 0.00 in0.0 mm 0.00 in0.0 mm 0.00 in0.0 mm
02:52 PM 62.9°F17.2°C 41.7°F5.4°C 46% 6.0 mph NE9.7 kmh NE -- 30.09 in1019.0 mb 0.00 in0.0 mm 0.00 in0.0 mm 0.00 in0.0 mm
02:57 PM 63.0°F17.2°C 42.8°F6.0°C 48% 3.0 mph ENE4.8 kmh ENE -- 30.09 in1019.0 mb 0.00 in0.0 mm 0.00 in0.0 mm 0.00 in0.0 mm
03:02 PM 63.0°F17.2°C 41.2°F5.1°C 45% 4.0 mph NNE6.4 kmh NNE -- 30.09 in1019.0 mb 0.00 in0.0 mm 0.00 in0.0 mm 0.00 in0.0 mm
03:07 PM 62.9°F17.2°C 40.6°F4.8°C 44% 3.0 mph NE4.8 kmh NE -- 30.09 in1019.0 mb 0.00 in0.0 mm 0.00 in0.0 mm 0.00 in0.0 mm
03:12 PM 62.8°F17.1°C 39.8°F4.3°C 43% 3.0 mph N4.8 kmh N -- 30.09 in1019.0 mb 0.00 in0.0 mm 0.00 in0.0 mm 0.00 in0.0 mm
03:17 PM 62.8°F17.1°C 41.0°F5.0°C 45% 3.0 mph NE4.8 kmh NE -- 30.09 in1019.0 mb 0.00 in0.0 mm 0.00 in0.0 mm 0.00 in0.0 mm
03:22 PM 62.7°F17.1°C 42.1°F5.6°C 47% 3.0 mph NE4.8 kmh NE -- 30.09 in1019.0 mb 0.00 in0.0 mm 0.00 in0.0 mm 0.00 in0.0 mm
03:27 PM 62.7°F17.1°C 42.1°F5.6°C 47% 6.0 mph NE9.7 kmh NE -- 30.09 in1019.0 mb 0.00 in0.0 mm 0.00 in0.0 mm 0.00 in0.0 mm
03:32 PM 62.7°F17.1°C 42.1°F5.6°C 47% 4.0 mph NNE6.4 kmh NNE -- 30.09 in1019.0 mb 0.00 in0.0 mm 0.00 in0.0 mm 0.00 in0.0 mm
03:37 PM 62.6°F17.0°C 42.0°F5.6°C 47% 3.0 mph NE4.8 kmh NE -- 30.09 in1019.0 mb 0.00 in0.0 mm 0.00 in0.0 mm 0.00 in0.0 mm
03:42 PM 62.6°F17.0°C 40.8°F4.9°C 45% 4.0 mph N6.4 kmh N -- 30.09 in1019.0 mb 0.00 in0.0 mm 0.00 in0.0 mm 0.00 in0.0 mm
03:47 PM 62.1°F16.7°C 41.5°F5.3°C 47% 4.0 mph N6.4 kmh N -- 30.09 in1019.0 mb 0.00 in0.0 mm 0.00 in0.0 mm 0.00 in0.0 mm
03:52 PM 61.9°F16.6°C 40.7°F4.8°C 46% 4.0 mph NNE6.4 kmh NNE -- 30.09 in1019.0 mb 0.00 in0.0 mm 0.00 in0.0 mm 0.00 in0.0 mm
03:57 PM 61.7°F16.5°C 39.4°F4.1°C 44% 3.0 mph NE4.8 kmh NE -- 30.09 in1019.0 mb 0.00 in0.0 mm 0.00 in0.0 mm 0.00 in0.0 mm
04:07 PM 61.6°F16.4°C 39.3°F4.1°C 44% 3.0 mph NNE4.8 kmh NNE -- 30.09 in1019.0 mb 0.00 in0.0 mm 0.00 in0.0 mm 0.00 in0.0 mm
04:12 PM 61.4°F16.3°C 38.5°F3.6°C 43% 6.0 mph NNE9.7 kmh NNE -- 30.09 in1019.0 mb 0.00 in0.0 mm 0.00 in0.0 mm 0.00 in0.0 mm
04:17 PM 61.3°F16.3°C 39.1°F3.9°C 44% 4.0 mph NNE6.4 kmh NNE -- 30.09 in1019.0 mb 0.00 in0.0 mm 0.00 in0.0 mm 0.00 in0.0 mm
04:22 PM 61.0°F16.1°C 37.0°F2.8°C 41% 6.0 mph N9.7 kmh N -- 30.10 in1019.3 mb 0.00 in0.0 mm 0.00 in0.0 mm 0.00 in0.0 mm
04:27 PM 61.1°F16.2°C 37.7°F3.2°C 42% 2.0 mph NE3.2 kmh NE -- 30.10 in1019.3 mb 0.00 in0.0 mm 0.00 in0.0 mm 0.00 in0.0 mm
04:32 PM 60.7°F15.9°C 37.3°F2.9°C 42% 3.0 mph NNW4.8 kmh NNW -- 30.10 in1019.3 mb 0.00 in0.0 mm 0.00 in0.0 mm 0.00 in0.0 mm
04:37 PM 60.2°F15.7°C 37.5°F3.1°C 43% 3.0 mph NE4.8 kmh NE -- 30.10 in1019.3 mb 0.00 in0.0 mm 0.00 in0.0 mm 0.00 in0.0 mm
04:42 PM 60.0°F15.6°C 37.4°F3.0°C 43% 4.0 mph NE6.4 kmh NE -- 30.10 in1019.3 mb 0.00 in0.0 mm 0.00 in0.0 mm 0.00 in0.0 mm
04:47 PM 59.8°F15.4°C 37.0°F2.8°C 43% 3.0 mph NNE4.8 kmh NNE -- 30.10 in1019.3 mb 0.00 in0.0 mm 0.00 in0.0 mm 0.00 in0.0 mm
04:52 PM 59.2°F15.1°C 37.7°F3.2°C 45% 3.0 mph NE4.8 kmh NE -- 30.10 in1019.3 mb 0.00 in0.0 mm 0.00 in0.0 mm 0.00 in0.0 mm
04:57 PM 59.0°F15.0°C 36.4°F2.4°C 43% 3.0 mph NE4.8 kmh NE -- 30.10 in1019.3 mb 0.00 in0.0 mm 0.00 in0.0 mm 0.00 in0.0 mm
05:02 PM 59.2°F15.1°C 35.9°F2.2°C 42% 4.0 mph NE6.4 kmh NE -- 30.10 in1019.3 mb 0.00 in0.0 mm 0.00 in0.0 mm 0.00 in0.0 mm
05:07 PM 58.7°F14.8°C 36.1°F2.3°C 43% 4.0 mph NNE6.4 kmh NNE -- 30.10 in1019.3 mb 0.00 in0.0 mm 0.00 in0.0 mm 0.00 in0.0 mm
05:12 PM 58.1°F14.5°C 36.1°F2.3°C 44% 2.0 mph NE3.2 kmh NE -- 30.11 in1019.6 mb 0.00 in0.0 mm 0.00 in0.0 mm 0.00 in0.0 mm
05:17 PM 57.6°F14.2°C 35.1°F1.7°C 43% Calm Calm -- 30.11 in1019.6 mb 0.00 in0.0 mm 0.00 in0.0 mm 0.00 in0.0 mm
05:22 PM 57.2°F14.0°C 35.3°F1.8°C 44% Calm Calm -- 30.11 in1019.6 mb 0.00 in0.0 mm 0.00 in0.0 mm 0.00 in0.0 mm
05:27 PM 56.6°F13.7°C 35.4°F1.9°C 45% 2.0 mph ENE3.2 kmh ENE -- 30.11 in1019.6 mb 0.00 in0.0 mm 0.00 in0.0 mm 0.00 in0.0 mm
05:32 PM 56.0°F13.3°C 34.7°F1.5°C 45% 2.0 mph NE3.2 kmh NE -- 30.11 in1019.6 mb 0.00 in0.0 mm 0.00 in0.0 mm 0.00 in0.0 mm
05:37 PM 55.5°F13.1°C 35.0°F1.7°C 46% Calm Calm -- 30.11 in1019.6 mb 0.00 in0.0 mm 0.00 in0.0 mm 0.00 in0.0 mm
05:42 PM 54.8°F12.7°C 34.9°F1.6°C 47% 2.0 mph E3.2 kmh E -- 30.11 in1019.6 mb 0.00 in0.0 mm 0.00 in0.0 mm 0.00 in0.0 mm
05:47 PM 54.3°F12.4°C 34.9°F1.6°C 48% 1.0 mph E1.6 kmh E -- 30.11 in1019.6 mb 0.00 in0.0 mm 0.00 in0.0 mm 0.00 in0.0 mm
05:52 PM 53.8°F12.1°C 34.9°F1.6°C 49% Calm Calm -- 30.11 in1019.6 mb 0.00 in0.0 mm 0.00 in0.0 mm 0.00 in0.0 mm
05:57 PM 53.4°F11.9°C 34.6°F1.4°C 49% Calm Calm -- 30.11 in1019.6 mb 0.00 in0.0 mm 0.00 in0.0 mm 0.00 in0.0 mm
06:02 PM 53.2°F11.8°C 34.4°F1.3°C 49% Calm Calm -- 30.11 in1019.6 mb 0.00 in0.0 mm 0.00 in0.0 mm 0.00 in0.0 mm
06:07 PM 53.0°F11.7°C 34.2°F1.2°C 49% Calm Calm -- 30.11 in1019.6 mb 0.00 in0.0 mm 0.00 in0.0 mm 0.00 in0.0 mm
06:12 PM 52.8°F11.6°C 34.1°F1.2°C 49% 1.0 mph SE1.6 kmh SE -- 30.11 in1019.6 mb 0.00 in0.0 mm 0.00 in0.0 mm 0.00 in0.0 mm
06:17 PM 52.7°F11.5°C 33.9°F1.1°C 49% 2.0 mph ESE3.2 kmh ESE -- 30.11 in1019.6 mb 0.00 in0.0 mm 0.00 in0.0 mm 0.00 in0.0 mm
06:22 PM 53.2°F11.8°C 34.4°F1.3°C 49% 2.0 mph E3.2 kmh E -- 30.11 in1019.6 mb 0.00 in0.0 mm 0.00 in0.0 mm 0.00 in0.0 mm
06:27 PM 53.2°F11.8°C 34.4°F1.3°C 49% 2.0 mph E3.2 kmh E -- 30.11 in1019.6 mb 0.00 in0.0 mm 0.00 in0.0 mm 0.00 in0.0 mm
06:32 PM 53.3°F11.8°C 34.4°F1.3°C 49% 2.0 mph E3.2 kmh E -- 30.11 in1019.6 mb 0.00 in0.0 mm 0.00 in0.0 mm 0.00 in0.0 mm
06:37 PM 53.2°F11.8°C 34.4°F1.3°C 49% 2.0 mph E3.2 kmh E -- 30.11 in1019.6 mb 0.00 in0.0 mm 0.00 in0.0 mm 0.00 in0.0 mm
06:42 PM 53.3°F11.8°C 34.4°F1.3°C 49% Calm Calm -- 30.12 in1020.0 mb 0.00 in0.0 mm 0.00 in0.0 mm 0.00 in0.0 mm
06:47 PM 53.1°F11.7°C 34.2°F1.2°C 49% 2.0 mph ESE3.2 kmh ESE -- 30.12 in1020.0 mb 0.00 in0.0 mm 0.00 in0.0 mm 0.00 in0.0 mm
06:52 PM 53.0°F11.7°C 34.2°F1.2°C 49% 4.0 mph ESE6.4 kmh ESE -- 30.12 in1020.0 mb 0.00 in0.0 mm 0.00 in0.0 mm 0.00 in0.0 mm
06:57 PM 53.2°F11.8°C 34.4°F1.3°C 49% 1.0 mph E1.6 kmh E -- 30.12 in1020.0 mb 0.00 in0.0 mm 0.00 in0.0 mm 0.00 in0.0 mm
07:02 PM 53.1°F11.7°C 34.2°F1.2°C 49% 1.0 mph ESE1.6 kmh ESE -- 30.13 in1020.3 mb 0.00 in0.0 mm 0.00 in0.0 mm 0.00 in0.0 mm
07:07 PM 52.9°F11.6°C 34.6°F1.4°C 50% 3.0 mph ESE4.8 kmh ESE -- 30.13 in1020.3 mb 0.00 in0.0 mm 0.00 in0.0 mm 0.00 in0.0 mm
07:12 PM 52.5°F11.4°C 34.3°F1.3°C 50% 2.0 mph ESE3.2 kmh ESE -- 30.13 in1020.3 mb 0.00 in0.0 mm 0.00 in0.0 mm 0.00 in0.0 mm
07:17 PM 52.2°F11.2°C 34.4°F1.3°C 51% Calm Calm -- 30.13 in1020.3 mb 0.00 in0.0 mm 0.00 in0.0 mm 0.00 in0.0 mm
07:22 PM 51.9°F11.1°C 34.3°F1.3°C 51% Calm Calm -- 30.14 in1020.7 mb 0.00 in0.0 mm 0.00 in0.0 mm 0.00 in0.0 mm
07:27 PM 51.3°F10.7°C 34.6°F1.4°C 53% 2.0 mph E3.2 kmh E -- 30.14 in1020.7 mb 0.00 in0.0 mm 0.00 in0.0 mm 0.00 in0.0 mm
07:32 PM 51.1°F10.6°C 34.4°F1.3°C 53% 2.0 mph ENE3.2 kmh ENE -- 30.15 in1021.0 mb 0.00 in0.0 mm 0.00 in0.0 mm 0.00 in0.0 mm
07:37 PM 51.0°F10.6°C 34.4°F1.3°C 53% 1.0 mph ESE1.6 kmh ESE -- 30.14 in1020.7 mb 0.00 in0.0 mm 0.00 in0.0 mm 0.00 in0.0 mm
07:42 PM 50.6°F10.3°C 33.9°F1.1°C 53% 2.0 mph E3.2 kmh E -- 30.15 in1021.0 mb 0.00 in0.0 mm 0.00 in0.0 mm 0.00 in0.0 mm
07:47 PM 50.8°F10.4°C 34.1°F1.2°C 53% 1.0 mph E1.6 kmh E -- 30.15 in1021.0 mb 0.00 in0.0 mm 0.00 in0.0 mm 0.00 in0.0 mm
07:52 PM 50.8°F10.4°C 34.1°F1.2°C 53% 3.0 mph E4.8 kmh E -- 30.15 in1021.0 mb 0.00 in0.0 mm 0.00 in0.0 mm 0.00 in0.0 mm
07:57 PM 50.7°F10.4°C 34.5°F1.4°C 54% 3.0 mph E4.8 kmh E -- 30.15 in1021.0 mb 0.00 in0.0 mm 0.00 in0.0 mm 0.00 in0.0 mm
08:02 PM 50.7°F10.4°C 34.5°F1.4°C 54% 2.0 mph E3.2 kmh E -- 30.15 in1021.0 mb 0.00 in0.0 mm 0.00 in0.0 mm 0.00 in0.0 mm
08:07 PM 50.4°F10.2°C 34.2°F1.2°C 54% 2.0 mph E3.2 kmh E -- 30.15 in1021.0 mb 0.00 in0.0 mm 0.00 in0.0 mm 0.00 in0.0 mm
08:12 PM 50.0°F10.0°C 34.3°F1.3°C 55% 1.0 mph SE1.6 kmh SE -- 30.16 in1021.3 mb 0.00 in0.0 mm 0.00 in0.0 mm 0.00 in0.0 mm
08:17 PM 49.9°F9.9°C 34.1°F1.2°C 55% 2.0 mph SE3.2 kmh SE -- 30.15 in1021.0 mb 0.00 in0.0 mm 0.00 in0.0 mm 0.00 in0.0 mm
08:22 PM 49.8°F9.9°C 34.6°F1.4°C 56% 3.0 mph E4.8 kmh E -- 30.15 in1021.0 mb 0.00 in0.0 mm 0.00 in0.0 mm 0.00 in0.0 mm
08:27 PM 50.0°F10.0°C 34.8°F1.6°C 56% 3.0 mph ESE4.8 kmh ESE -- 30.16 in1021.3 mb 0.00 in0.0 mm 0.00 in0.0 mm 0.00 in0.0 mm
08:32 PM 50.1°F10.1°C 34.9°F1.6°C 56% 3.0 mph ESE4.8 kmh ESE -- 30.16 in1021.3 mb 0.00 in0.0 mm 0.00 in0.0 mm 0.00 in0.0 mm
08:37 PM 50.3°F10.2°C 35.6°F2.0°C 57% 3.0 mph E4.8 kmh E -- 30.16 in1021.3 mb 0.00 in0.0 mm 0.00 in0.0 mm 0.00 in0.0 mm
08:42 PM 50.3°F10.2°C 35.1°F1.7°C 56% 2.0 mph SE3.2 kmh SE -- 30.16 in1021.3 mb 0.00 in0.0 mm 0.00 in0.0 mm 0.00 in0.0 mm
08:47 PM 50.4°F10.2°C 35.6°F2.0°C 57% 5.0 mph SE8.0 kmh SE -- 30.17 in1021.7 mb 0.00 in0.0 mm 0.00 in0.0 mm 0.00 in0.0 mm
08:52 PM 50.2°F10.1°C 35.4°F1.9°C 57% 1.0 mph SSE1.6 kmh SSE -- 30.17 in1021.7 mb 0.00 in0.0 mm 0.00 in0.0 mm 0.00 in0.0 mm
08:57 PM 50.0°F10.0°C 35.7°F2.1°C 58% 1.0 mph SE1.6 kmh SE -- 30.17 in1021.7 mb 0.00 in0.0 mm 0.00 in0.0 mm 0.00 in0.0 mm
09:02 PM 49.8°F9.9°C 35.5°F1.9°C 58% 1.0 mph SSE1.6 kmh SSE -- 30.17 in1021.7 mb 0.00 in0.0 mm 0.00 in0.0 mm 0.00 in0.0 mm
09:07 PM 49.4°F9.7°C 35.6°F2.0°C 59% 1.0 mph E1.6 kmh E -- 30.17 in1021.7 mb 0.00 in0.0 mm 0.00 in0.0 mm 0.00 in0.0 mm
09:12 PM 49.1°F9.5°C 35.3°F1.8°C 59% 4.0 mph ESE6.4 kmh ESE -- 30.17 in1021.7 mb 0.00 in0.0 mm 0.00 in0.0 mm 0.00 in0.0 mm
09:17 PM 49.0°F9.4°C 35.5°F1.9°C 60% 3.0 mph SE4.8 kmh SE -- 30.17 in1021.7 mb 0.00 in0.0 mm 0.00 in0.0 mm 0.00 in0.0 mm
09:22 PM 48.7°F9.3°C 35.3°F1.8°C 60% 1.0 mph SSE1.6 kmh SSE -- 30.17 in1021.7 mb 0.00 in0.0 mm 0.00 in0.0 mm 0.00 in0.0 mm
09:27 PM 48.5°F9.2°C 35.6°F2.0°C 61% Calm Calm -- 30.18 in1022.0 mb 0.00 in0.0 mm 0.00 in0.0 mm 0.00 in0.0 mm
09:32 PM 48.1°F8.9°C 35.5°F1.9°C 62% 1.0 mph SSE1.6 kmh SSE -- 30.17 in1021.7 mb 0.00 in0.0 mm 0.00 in0.0 mm 0.00 in0.0 mm
09:37 PM 47.8°F8.8°C 35.3°F1.8°C 62% 2.0 mph E3.2 kmh E -- 30.18 in1022.0 mb 0.00 in0.0 mm 0.00 in0.0 mm 0.00 in0.0 mm
09:42 PM 47.6°F8.7°C 35.6°F2.0°C 63% 1.0 mph SSE1.6 kmh SSE -- 30.18 in1022.0 mb 0.00 in0.0 mm 0.00 in0.0 mm 0.00 in0.0 mm
09:47 PM 47.5°F8.6°C 35.8°F2.1°C 64% 1.0 mph SE1.6 kmh SE -- 30.18 in1022.0 mb 0.00 in0.0 mm 0.00 in0.0 mm 0.00 in0.0 mm
09:57 PM 47.6°F8.7°C 36.0°F2.2°C 64% 4.0 mph ENE6.4 kmh ENE -- 30.18 in1022.0 mb 0.00 in0.0 mm 0.00 in0.0 mm 0.00 in0.0 mm
10:02 PM 47.8°F8.8°C 36.1°F2.3°C 64% 3.0 mph SE4.8 kmh SE -- 30.18 in1022.0 mb 0.00 in0.0 mm 0.00 in0.0 mm 0.00 in0.0 mm
10:07 PM 47.6°F8.7°C 36.0°F2.2°C 64% 2.0 mph ESE3.2 kmh ESE -- 30.18 in1022.0 mb 0.00 in0.0 mm 0.00 in0.0 mm 0.00 in0.0 mm
10:12 PM 47.4°F8.6°C 36.2°F2.3°C 65% 2.0 mph E3.2 kmh E -- 30.19 in1022.4 mb 0.00 in0.0 mm 0.00 in0.0 mm 0.00 in0.0 mm
10:17 PM 47.3°F8.5°C 36.0°F2.2°C 65% 3.0 mph E4.8 kmh E -- 30.19 in1022.4 mb 0.00 in0.0 mm 0.00 in0.0 mm 0.00 in0.0 mm
10:22 PM 47.4°F8.6°C 36.2°F2.3°C 65% 6.0 mph SE9.7 kmh SE -- 30.19 in1022.4 mb 0.00 in0.0 mm 0.00 in0.0 mm 0.00 in0.0 mm
10:27 PM 47.1°F8.4°C 35.8°F2.1°C 65% 2.0 mph ESE3.2 kmh ESE -- 30.19 in1022.4 mb 0.00 in0.0 mm 0.00 in0.0 mm 0.00 in0.0 mm
10:32 PM 47.0°F8.3°C 36.1°F2.3°C 66% 2.0 mph SE3.2 kmh SE -- 30.19 in1022.4 mb 0.00 in0.0 mm 0.00 in0.0 mm 0.00 in0.0 mm
10:37 PM 46.9°F8.3°C 36.1°F2.3°C 66% 4.0 mph ESE6.4 kmh ESE -- 30.20 in1022.7 mb 0.00 in0.0 mm 0.00 in0.0 mm 0.00 in0.0 mm
10:42 PM 46.8°F8.2°C 35.9°F2.2°C 66% 2.0 mph NE3.2 kmh NE -- 30.20 in1022.7 mb 0.00 in0.0 mm 0.00 in0.0 mm 0.00 in0.0 mm
10:47 PM 46.7°F8.2°C 35.9°F2.2°C 66% 2.0 mph ESE3.2 kmh ESE -- 30.20 in1022.7 mb 0.00 in0.0 mm 0.00 in0.0 mm 0.00 in0.0 mm
10:52 PM 46.6°F8.1°C 35.7°F2.1°C 66% 3.0 mph E4.8 kmh E -- 30.20 in1022.7 mb 0.00 in0.0 mm 0.00 in0.0 mm 0.00 in0.0 mm
10:57 PM 46.7°F8.2°C 35.9°F2.2°C 66% 3.0 mph E4.8 kmh E -- 30.20 in1022.7 mb 0.00 in0.0 mm 0.00 in0.0 mm 0.00 in0.0 mm
11:03 PM 46.4°F8.0°C 35.9°F2.2°C 67% 3.0 mph ESE4.8 kmh ESE -- 30.20 in1022.7 mb 0.00 in0.0 mm 0.00 in0.0 mm 0.00 in0.0 mm
11:07 PM 46.4°F8.0°C 35.9°F2.2°C 67% 3.0 mph ESE4.8 kmh ESE -- 30.20 in1022.7 mb 0.00 in0.0 mm 0.00 in0.0 mm 0.00 in0.0 mm
11:12 PM 46.3°F7.9°C 35.8°F2.1°C 67% 1.0 mph E1.6 kmh E -- 30.20 in1022.7 mb 0.00 in0.0 mm 0.00 in0.0 mm 0.00 in0.0 mm
11:17 PM 46.0°F7.8°C 36.0°F2.2°C 68% 2.0 mph ESE3.2 kmh ESE -- 30.21 in1023.0 mb 0.00 in0.0 mm 0.00 in0.0 mm 0.00 in0.0 mm
11:22 PM 45.6°F7.6°C 36.0°F2.2°C 69% 1.0 mph E1.6 kmh E -- 30.20 in1022.7 mb 0.00 in0.0 mm 0.00 in0.0 mm 0.00 in0.0 mm
11:27 PM 45.3°F7.4°C 35.6°F2.0°C 69% Calm Calm -- 30.20 in1022.7 mb 0.00 in0.0 mm 0.00 in0.0 mm 0.00 in0.0 mm
11:32 PM 44.8°F7.1°C 35.1°F1.7°C 69% Calm Calm -- 30.20 in1022.7 mb 0.00 in0.0 mm 0.00 in0.0 mm 0.00 in0.0 mm
11:37 PM 44.4°F6.9°C 35.1°F1.7°C 70% Calm Calm -- 30.20 in1022.7 mb 0.00 in0.0 mm 0.00 in0.0 mm 0.00 in0.0 mm
11:42 PM 43.9°F6.6°C 35.0°F1.7°C 71% Calm Calm -- 30.20 in1022.7 mb 0.00 in0.0 mm 0.00 in0.0 mm 0.00 in0.0 mm
11:47 PM 43.4°F6.3°C 34.8°F1.6°C 72% Calm Calm -- 30.20 in1022.7 mb 0.00 in0.0 mm 0.00 in0.0 mm 0.00 in0.0 mm
11:53 PM 42.9°F6.1°C 34.8°F1.6°C 73% Calm Calm -- 30.20 in1022.7 mb 0.00 in0.0 mm 0.00 in0.0 mm 0.00 in0.0 mm
11:57 PM 42.5°F5.8°C 34.6°F1.4°C 74% Calm Calm -- 30.20 in1022.7 mb 0.00 in0.0 mm 0.00 in0.0 mm 0.00 in0.0 mm